Kezdőlap
METAR-TAF:

METAR-TAF

Repülőterek :

South Bend Regional Airport

South Bend, Indiana, Amerikai Egyesült Államok

földrajzi szélesség: 41-42-32N, földrajzi hosszúság: 086-19-07W, magasság: 244 m

Jelenlegi meteorológiai megfigyelések

A jelentés 24 perccel ezelõtt készült, 09:54 UTC
Szélcsend
Hőmérséklet 16°C
Páratartalom 88%
Légköri nyomás 1020 hPa
Látótávolság: 12.9 km
Derült ég

METAR: KSBN 210954Z 00000KT 8SM CLR 16/14 A3013 RMK AO2 SLP199 T01560139

Idő: 06:18 (10:18 UTC)

Előrejelzés

A jelentés 4 órával és 58 perccel ezelõtt készült, 05:20 UTC
Az előrejelzés 21-én 06 óra UTC és 22-én 06 óra UTC között érvényes
Különbözõ irányokból fújó szél 3 kt
Látótávolság: 10 km
Szakadozott felhőzet 25000 lábon

TAF: KSBN 210520Z 2106/2206 VRB03KT P6SM BKN250

Meteorológiai megfigyelések és előrejelzések több, mint 4000 repülőtéren (METAR és TAF jelentéseket).

A térképen piros és sárga pontok jelzik az elérhető meteorológiai állomásokat.

Mozgassa az egeret a pont fölött, hogy megjelenjen az állomás neve.

Azután kattintson az időjárási megfigyelések és előrejelzések megtekintéséhez.

A térkép megváltoztatása: kattintson a fekete keresztel jelölt zöld gombra ráközelítéshez, a vonallal jelölt zöld gombra távolításhoz, vagy a zöld nyilakra a szomszédos térképek eléréséhez.


METAR-TAF: